Time;durP1;ratioP1;P1;durP2;ratioP2;P2;SDS_P1;SDS_P2;PMS_P1;PMS_P2;Temp;Humidity;BMP_temperature;BMP_pressure;BME280_temperature;BME280_humidity;BME280_pressure;Samples;Min_cycle;Max_cycle;Signal;HPM_P1;HPM_P2
2023/08/23 00:00:17;;;;;;;1.60;1.50;;;;;;;;;;4963743;28;20113;-81
2023/08/23 00:02:43;;;;;;;1.52;1.48;;;;;;;;;;4991589;28;20066;-81
2023/08/23 00:05:10;;;;;;;1.30;1.30;;;;;;;;;;5000960;28;20073;-81
2023/08/23 00:07:36;;;;;;;1.30;1.30;;;;;;;;;;4973461;28;20094;-81
2023/08/23 00:10:02;;;;;;;1.30;1.30;;;;;;;;;;4981881;28;20042;-81
2023/08/23 00:12:28;;;;;;;1.15;1.15;;;;;;;;;;4981699;28;20031;-81
2023/08/23 00:14:54;;;;;;;1.00;1.00;;;;;;;;;;4963523;28;20046;-81
2023/08/23 00:17:20;;;;;;;1.02;1.02;;;;;;;;;;4980493;28;20030;-81
2023/08/23 00:19:46;;;;;;;1.20;1.20;;;;;;;;;;4963144;28;20058;-81
2023/08/23 00:22:13;;;;;;;1.00;1.00;;;;;;;;;;4981265;28;20118;-81
2023/08/23 00:24:39;;;;;;;1.30;1.30;;;;;;;;;;4963032;28;20054;-81
2023/08/23 00:27:05;;;;;;;0.98;0.98;;;;;;;;;;4981026;28;20019;-81
2023/08/23 00:29:31;;;;;;;1.00;1.00;;;;;;;;;;4981198;28;20027;-80
2023/08/23 00:31:57;;;;;;;1.13;1.13;;;;;;;;;;4967216;28;20033;-81
2023/08/23 00:34:23;;;;;;;1.10;1.10;;;;;;;;;;5009725;28;20038;-82
2023/08/23 00:36:49;;;;;;;1.20;1.20;;;;;;;;;;5016365;28;20082;-80
2023/08/23 00:39:15;;;;;;;1.00;1.00;;;;;;;;;;4996129;28;20027;-82
2023/08/23 00:41:43;;;;;;;1.40;1.40;;;;;;;;;;4993420;28;20015;-81
2023/08/23 00:44:09;;;;;;;1.30;1.30;;;;;;;;;;4993370;28;20410;-80
2023/08/23 00:46:35;;;;;;;1.10;1.10;;;;;;;;;;4965832;28;20027;-82
2023/08/23 00:49:01;;;;;;;1.38;1.38;;;;;;;;;;4983853;28;20026;-80
2023/08/23 00:51:27;;;;;;;1.50;1.50;;;;;;;;;;4984307;28;20029;-80
2023/08/23 00:53:53;;;;;;;1.65;1.58;;;;;;;;;;4987283;28;20082;-81
2023/08/23 00:56:20;;;;;;;1.88;1.77;;;;;;;;;;4969598;28;20121;-80
2023/08/23 00:58:46;;;;;;;1.58;1.58;;;;;;;;;;4966858;28;20034;-81
2023/08/23 01:01:12;;;;;;;1.83;1.73;;;;;;;;;;4964451;28;20029;-80
2023/08/23 01:03:38;;;;;;;1.63;1.52;;;;;;;;;;4998187;28;20061;-80
2023/08/23 01:06:23;;;;;;;1.75;1.65;;;;;;;;;;5000376;28;20018;-81
2023/08/23 01:08:50;;;;;;;2.15;2.05;;;;;;;;;;4982685;28;20118;-81
2023/08/23 01:11:25;;;;;;;2.15;2.05;;;;;;;;;;5000653;28;20081;-81
2023/08/23 01:14:05;;;;;;;2.70;2.50;;;;;;;;;;4979983;28;20019;-83
2023/08/23 01:16:31;;;;;;;2.40;2.30;;;;;;;;;;4980432;28;20027;-79
2023/08/23 01:18:59;;;;;;;2.53;2.35;;;;;;;;;;4980807;28;20065;-81
2023/08/23 01:21:28;;;;;;;2.15;2.05;;;;;;;;;;4962778;28;20054;-80
2023/08/23 01:23:54;;;;;;;2.35;2.25;;;;;;;;;;4979846;28;20046;-81
2023/08/23 01:26:20;;;;;;;2.40;2.20;;;;;;;;;;4981077;28;20027;-82
2023/08/23 01:28:47;;;;;;;2.17;2.08;;;;;;;;;;4979948;28;20026;-80
2023/08/23 01:31:14;;;;;;;2.30;2.20;;;;;;;;;;4979610;28;20027;-81
2023/08/23 01:33:42;;;;;;;2.50;2.30;;;;;;;;;;5001262;28;20050;-81
2023/08/23 01:36:14;;;;;;;2.40;2.28;;;;;;;;;;4991139;28;20234;-80
2023/08/23 01:38:42;;;;;;;2.50;2.33;;;;;;;;;;4979888;28;20494;-81
2023/08/23 01:41:08;;;;;;;3.03;2.83;;;;;;;;;;4960839;28;20035;-80
2023/08/23 01:43:34;;;;;;;3.65;3.35;;;;;;;;;;4961022;28;20019;-80
2023/08/23 01:46:00;;;;;;;3.35;3.05;;;;;;;;;;4977884;28;20479;-80
2023/08/23 01:48:26;;;;;;;4.85;4.45;;;;;;;;;;4978750;28;20039;-80
2023/08/23 01:50:52;;;;;;;4.70;4.30;;;;;;;;;;4978268;28;20022;-80
2023/08/23 01:53:18;;;;;;;4.40;4.00;;;;;;;;;;4979574;28;20471;-80
2023/08/23 01:55:44;;;;;;;4.55;4.15;;;;;;;;;;4960770;28;20054;-80
2023/08/23 01:58:11;;;;;;;4.10;3.80;;;;;;;;;;4979623;28;20054;-81
2023/08/23 02:00:37;;;;;;;4.40;4.00;;;;;;;;;;4962828;28;20441;-81
2023/08/23 02:03:03;;;;;;;3.55;3.35;;;;;;;;;;4979255;28;20031;-80
2023/08/23 02:05:32;;;;;;;3.30;3.10;;;;;;;;;;4979023;28;20390;-80
2023/08/23 02:07:58;;;;;;;3.25;3.05;;;;;;;;;;4987351;28;20023;-81
2023/08/23 02:10:24;;;;;;;3.22;3.03;;;;;;;;;;4978788;28;20027;-80
2023/08/23 02:12:50;;;;;;;3.13;2.92;;;;;;;;;;4979509;28;20027;-81
2023/08/23 02:15:16;;;;;;;3.35;3.15;;;;;;;;;;4978550;28;20151;-80
2023/08/23 02:17:42;;;;;;;2.83;2.63;;;;;;;;;;4959808;28;20081;-78
2023/08/23 02:20:09;;;;;;;3.13;2.92;;;;;;;;;;4977772;28;20041;-81
2023/08/23 02:22:35;;;;;;;3.35;3.15;;;;;;;;;;4979327;28;20462;-80
2023/08/23 02:25:01;;;;;;;3.42;3.22;;;;;;;;;;4978395;28;20026;-81
2023/08/23 02:27:27;;;;;;;3.28;3.00;;;;;;;;;;4978124;28;20425;-80
2023/08/23 02:29:53;;;;;;;4.00;3.70;;;;;;;;;;4984483;28;20019;-80
2023/08/23 02:32:19;;;;;;;3.90;3.60;;;;;;;;;;4988518;28;20037;-80
2023/08/23 02:34:45;;;;;;;4.10;3.80;;;;;;;;;;4970844;28;20035;-80
2023/08/23 02:37:11;;;;;;;4.28;3.97;;;;;;;;;;5000248;28;20050;-80
2023/08/23 02:39:37;;;;;;;4.47;4.18;;;;;;;;;;4962791;28;20031;-82
2023/08/23 02:42:03;;;;;;;4.65;4.22;;;;;;;;;;4982695;28;20038;-81
2023/08/23 02:44:29;;;;;;;4.63;4.22;;;;;;;;;;4984402;28;20027;-81
2023/08/23 02:46:56;;;;;;;4.50;4.15;;;;;;;;;;4999063;28;20027;-80
2023/08/23 02:49:22;;;;;;;5.00;4.50;;;;;;;;;;4999192;28;20027;-80
2023/08/23 02:51:48;;;;;;;4.22;3.83;;;;;;;;;;4970466;28;20466;-80
2023/08/23 02:54:14;;;;;;;4.07;3.67;;;;;;;;;;4984043;28;20022;-80
2023/08/23 02:56:40;;;;;;;4.40;4.00;;;;;;;;;;4966825;28;20552;-80
2023/08/23 02:59:06;;;;;;;4.78;4.38;;;;;;;;;;4982771;28;20054;-80
2023/08/23 03:01:32;;;;;;;4.05;3.75;;;;;;;;;;4983876;28;20489;-81
2023/08/23 03:03:58;;;;;;;3.97;3.60;;;;;;;;;;4984838;28;20097;-80
2023/08/23 03:06:24;;;;;;;3.80;3.50;;;;;;;;;;4988738;28;20027;-80
2023/08/23 03:08:50;;;;;;;4.15;3.85;;;;;;;;;;4984059;28;20031;-80
2023/08/23 03:11:16;;;;;;;3.90;3.60;;;;;;;;;;4969385;28;20517;-81
2023/08/23 03:13:43;;;;;;;3.75;3.45;;;;;;;;;;4986004;28;20022;-81
2023/08/23 03:16:09;;;;;;;3.85;3.60;;;;;;;;;;4986610;28;20054;-82
2023/08/23 03:18:36;;;;;;;3.85;3.55;;;;;;;;;;4987136;28;20023;-81
2023/08/23 03:21:02;;;;;;;3.60;3.30;;;;;;;;;;5000467;28;20022;-83
2023/08/23 03:23:28;;;;;;;3.50;3.30;;;;;;;;;;4983218;28;20853;-82
2023/08/23 03:25:54;;;;;;;3.28;3.08;;;;;;;;;;4999270;28;20332;-83
2023/08/23 03:28:20;;;;;;;3.80;3.50;;;;;;;;;;4978545;28;20038;-83
2023/08/23 03:30:46;;;;;;;3.67;3.38;;;;;;;;;;4999764;28;20023;-81
2023/08/23 03:33:12;;;;;;;3.65;3.35;;;;;;;;;;4983192;28;20035;-79
2023/08/23 03:35:38;;;;;;;4.20;3.80;;;;;;;;;;4998937;28;20109;-80
2023/08/23 03:38:05;;;;;;;4.88;4.38;;;;;;;;;;4998647;28;20078;-79
2023/08/23 03:40:40;;;;;;;4.13;3.83;;;;;;;;;;4998053;28;20525;-78
2023/08/23 03:43:06;;;;;;;4.00;3.70;;;;;;;;;;4995327;28;20042;-79
2023/08/23 03:45:32;;;;;;;3.95;3.65;;;;;;;;;;4999030;28;20043;-82
2023/08/23 03:47:58;;;;;;;4.28;3.88;;;;;;;;;;4974549;28;20569;-78
2023/08/23 03:50:24;;;;;;;3.90;3.40;;;;;;;;;;4977925;28;20030;-77
2023/08/23 03:52:51;;;;;;;3.90;3.60;;;;;;;;;;4978060;28;20046;-78
2023/08/23 03:55:17;;;;;;;3.80;3.50;;;;;;;;;;4975424;28;20030;-79
2023/08/23 03:57:43;;;;;;;3.97;3.67;;;;;;;;;;4958261;28;20042;-80
2023/08/23 04:00:09;;;;;;;4.65;4.25;;;;;;;;;;4958137;28;20512;-79
2023/08/23 04:02:35;;;;;;;4.60;4.20;;;;;;;;;;4974626;28;20501;-79
2023/08/23 04:05:05;;;;;;;4.93;4.45;;;;;;;;;;4974397;28;20475;-79
2023/08/23 04:07:31;;;;;;;4.40;4.05;;;;;;;;;;4976693;28;20113;-77
2023/08/23 04:09:57;;;;;;;4.60;4.20;;;;;;;;;;4976960;28;20034;-78
2023/08/23 04:12:23;;;;;;;4.00;3.70;;;;;;;;;;4976728;28;20402;-78
2023/08/23 04:14:49;;;;;;;3.75;3.45;;;;;;;;;;4959234;28;20106;-78
2023/08/23 04:17:16;;;;;;;3.88;3.58;;;;;;;;;;4977803;28;20479;-78
2023/08/23 04:19:42;;;;;;;3.33;3.10;;;;;;;;;;4976856;28;20097;-78
2023/08/23 04:22:08;;;;;;;3.78;3.47;;;;;;;;;;4977918;28;20347;-79
2023/08/23 04:24:34;;;;;;;3.60;3.38;;;;;;;;;;4977637;28;20123;-78
2023/08/23 04:27:00;;;;;;;3.45;3.25;;;;;;;;;;4977554;28;20498;-77
2023/08/23 04:29:26;;;;;;;3.60;3.30;;;;;;;;;;4962907;28;20041;-78
2023/08/23 04:31:52;;;;;;;3.50;3.20;;;;;;;;;;4961513;28;20026;-78
2023/08/23 04:34:18;;;;;;;3.22;3.03;;;;;;;;;;4979384;28;20082;-79
2023/08/23 04:36:44;;;;;;;3.58;3.28;;;;;;;;;;4980464;28;20038;-79
2023/08/23 04:39:10;;;;;;;3.05;2.85;;;;;;;;;;4962356;28;20022;-79
2023/08/23 04:41:37;;;;;;;2.83;2.63;;;;;;;;;;4961850;28;20044;-79
2023/08/23 04:44:03;;;;;;;2.35;2.25;;;;;;;;;;4962115;28;20470;-79
2023/08/23 04:46:29;;;;;;;2.72;2.53;;;;;;;;;;4979957;28;20022;-79
2023/08/23 04:48:55;;;;;;;3.35;3.15;;;;;;;;;;4961991;28;20027;-79
2023/08/23 04:51:23;;;;;;;3.17;2.97;;;;;;;;;;4980442;28;20058;-79
2023/08/23 04:53:49;;;;;;;3.17;2.97;;;;;;;;;;4979764;28;20096;-78
2023/08/23 04:56:15;;;;;;;3.15;2.95;;;;;;;;;;4960886;28;20034;-79
2023/08/23 04:58:41;;;;;;;3.33;3.05;;;;;;;;;;4979262;28;20031;-79
2023/08/23 05:01:07;;;;;;;2.90;2.70;;;;;;;;;;4979251;28;20027;-79
2023/08/23 05:03:35;;;;;;;3.45;3.25;;;;;;;;;;4978558;28;20030;-79
2023/08/23 05:06:01;;;;;;;2.95;2.78;;;;;;;;;;4953051;28;20336;-79
2023/08/23 05:08:28;;;;;;;2.63;2.47;;;;;;;;;;4985395;28;20532;-79
2023/08/23 05:10:55;;;;;;;2.95;2.75;;;;;;;;;;4977189;28;20031;-78
2023/08/23 05:13:21;;;;;;;2.67;2.47;;;;;;;;;;4976910;28;20061;-79
2023/08/23 05:15:57;;;;;;;2.28;2.17;;;;;;;;;;4961220;28;20161;-79
2023/08/23 05:18:24;;;;;;;2.42;2.33;;;;;;;;;;4977367;28;20031;-80
2023/08/23 05:20:59;;;;;;;3.42;3.03;;;;;;;;;;4977377;28;20176;-79
2023/08/23 05:23:26;;;;;;;4.38;3.67;;;;;;;;;;4981274;28;20082;-79
2023/08/23 05:25:53;;;;;;;4.75;4.13;;;;;;;;;;4978884;28;20050;-78
2023/08/23 05:28:19;;;;;;;5.57;5.05;;;;;;;;;;4981665;28;20027;-78
2023/08/23 05:30:46;;;;;;;4.57;4.18;;;;;;;;;;4981375;28;20482;-78
2023/08/23 05:33:12;;;;;;;3.83;3.53;;;;;;;;;;4989243;28;20113;-78
2023/08/23 05:35:40;;;;;;;4.13;3.83;;;;;;;;;;4995901;28;20160;-79
2023/08/23 05:38:06;;;;;;;4.00;3.70;;;;;;;;;;4995442;28;20090;-79
2023/08/23 05:40:32;;;;;;;3.67;3.40;;;;;;;;;;4986600;28;20042;-80
2023/08/23 05:42:58;;;;;;;3.38;3.08;;;;;;;;;;4975454;28;20106;-79
2023/08/23 05:45:26;;;;;;;3.35;3.15;;;;;;;;;;4976307;28;20030;-79
2023/08/23 05:47:54;;;;;;;3.40;3.20;;;;;;;;;;4978244;28;20037;-79
2023/08/23 05:50:20;;;;;;;3.85;3.55;;;;;;;;;;4960321;28;20087;-80
2023/08/23 05:52:47;;;;;;;2.65;2.55;;;;;;;;;;4979612;28;20090;-79
2023/08/23 05:55:13;;;;;;;2.90;2.70;;;;;;;;;;4960537;28;20051;-79
2023/08/23 05:57:39;;;;;;;2.92;2.72;;;;;;;;;;4959881;28;20061;-79
2023/08/23 06:00:06;;;;;;;3.40;3.10;;;;;;;;;;4958595;28;20359;-79
2023/08/23 06:02:32;;;;;;;2.58;2.47;;;;;;;;;;4978567;28;20031;-79
2023/08/23 06:04:59;;;;;;;2.85;2.65;;;;;;;;;;4987451;28;20023;-81
2023/08/23 06:07:25;;;;;;;3.05;2.85;;;;;;;;;;4978566;28;20027;-81
2023/08/23 06:09:51;;;;;;;2.97;2.78;;;;;;;;;;4998000;28;20300;-80
2023/08/23 06:12:17;;;;;;;2.90;2.72;;;;;;;;;;4996760;28;20058;-79
2023/08/23 06:14:43;;;;;;;3.00;2.80;;;;;;;;;;5000690;28;20022;-78
2023/08/23 06:17:09;;;;;;;3.85;3.55;;;;;;;;;;5017292;28;20030;-80
2023/08/23 06:19:35;;;;;;;4.25;3.75;;;;;;;;;;4990950;28;20035;-79
2023/08/23 06:22:01;;;;;;;4.28;3.88;;;;;;;;;;4989798;28;20035;-79
2023/08/23 06:24:27;;;;;;;4.18;3.88;;;;;;;;;;4982066;28;20050;-80
2023/08/23 06:26:53;;;;;;;4.10;3.78;;;;;;;;;;4988898;28;20429;-79
2023/08/23 06:29:20;;;;;;;3.78;3.47;;;;;;;;;;4987475;28;20089;-79
2023/08/23 06:31:46;;;;;;;4.57;3.72;;;;;;;;;;4987208;28;20031;-79
2023/08/23 06:34:12;;;;;;;3.58;3.28;;;;;;;;;;5002443;28;20092;-79
2023/08/23 06:36:38;;;;;;;3.53;3.33;;;;;;;;;;4984079;28;20034;-80
2023/08/23 06:39:04;;;;;;;3.38;3.17;;;;;;;;;;4983904;28;20027;-80
2023/08/23 06:41:30;;;;;;;3.33;3.03;;;;;;;;;;4983277;28;20335;-79
2023/08/23 06:44:00;;;;;;;2.50;2.40;;;;;;;;;;4965035;28;20531;-80
2023/08/23 06:46:27;;;;;;;2.45;2.30;;;;;;;;;;4982708;28;20093;-80
2023/08/23 06:48:53;;;;;;;3.00;2.80;;;;;;;;;;4983030;28;20033;-80
2023/08/23 06:51:20;;;;;;;2.67;2.58;;;;;;;;;;4980548;28;20030;-80
2023/08/23 06:53:47;;;;;;;2.55;2.35;;;;;;;;;;4980214;28;20027;-79
2023/08/23 06:56:13;;;;;;;3.10;2.90;;;;;;;;;;4980818;28;20045;-79
2023/08/23 06:58:39;;;;;;;3.65;3.30;;;;;;;;;;4981140;28;20030;-80
2023/08/23 07:01:14;;;;;;;3.95;3.65;;;;;;;;;;4966592;28;20490;-80
2023/08/23 07:03:41;;;;;;;4.13;3.80;;;;;;;;;;4993359;28;20022;-80
2023/08/23 07:06:07;;;;;;;3.83;3.60;;;;;;;;;;5001707;28;20481;-81
2023/08/23 07:08:33;;;;;;;3.50;3.30;;;;;;;;;;4975895;28;20492;-80
2023/08/23 07:10:59;;;;;;;3.53;3.28;;;;;;;;;;4962690;28;20034;-80
2023/08/23 07:13:26;;;;;;;3.30;3.10;;;;;;;;;;4982161;28;20058;-81
2023/08/23 07:15:52;;;;;;;3.40;3.20;;;;;;;;;;4981572;28;20027;-80
2023/08/23 07:18:18;;;;;;;3.20;3.00;;;;;;;;;;4982364;28;20031;-81
2023/08/23 07:20:45;;;;;;;2.95;2.75;;;;;;;;;;4981993;28;20031;-79
2023/08/23 07:23:12;;;;;;;3.40;3.20;;;;;;;;;;4980690;28;20055;-79
2023/08/23 07:25:39;;;;;;;3.10;2.90;;;;;;;;;;4984766;28;20455;-80
2023/08/23 07:28:05;;;;;;;2.83;2.70;;;;;;;;;;4990818;28;20050;-80
2023/08/23 07:30:31;;;;;;;2.55;2.45;;;;;;;;;;4989193;28;20481;-78
2023/08/23 07:32:57;;;;;;;2.72;2.63;;;;;;;;;;5000855;28;20121;-79
2023/08/23 07:35:23;;;;;;;2.65;2.50;;;;;;;;;;5004473;28;20030;-79
2023/08/23 07:37:49;;;;;;;2.80;2.60;;;;;;;;;;5001070;28;20070;-80
2023/08/23 07:40:15;;;;;;;3.00;2.83;;;;;;;;;;4983906;28;20026;-80
2023/08/23 07:42:41;;;;;;;2.35;2.25;;;;;;;;;;4988660;28;20023;-79
2023/08/23 07:45:09;;;;;;;3.17;2.97;;;;;;;;;;4979582;28;20051;-79
2023/08/23 07:47:35;;;;;;;3.00;2.80;;;;;;;;;;4980064;28;20655;-80
2023/08/23 07:50:04;;;;;;;3.30;3.00;;;;;;;;;;4980235;28;20033;-79
2023/08/23 07:52:31;;;;;;;2.83;2.72;;;;;;;;;;4980381;28;20030;-80
2023/08/23 07:54:57;;;;;;;4.30;3.30;;;;;;;;;;4962897;28;20045;-80
2023/08/23 07:57:23;;;;;;;3.97;3.63;;;;;;;;;;4962702;28;20449;-80
2023/08/23 07:59:50;;;;;;;3.88;3.58;;;;;;;;;;4982028;28;20027;-80
2023/08/23 08:02:16;;;;;;;3.75;3.45;;;;;;;;;;4985014;28;20026;-79
2023/08/23 08:04:43;;;;;;;3.80;3.50;;;;;;;;;;4977183;28;20026;-80
2023/08/23 08:07:09;;;;;;;3.50;3.30;;;;;;;;;;4980555;28;20023;-79
2023/08/23 08:09:35;;;;;;;3.70;3.42;;;;;;;;;;4983567;28;20030;-79
2023/08/23 08:12:01;;;;;;;3.92;3.63;;;;;;;;;;4982464;28;20031;-79
2023/08/23 08:14:27;;;;;;;4.22;3.92;;;;;;;;;;4974603;28;20031;-80
2023/08/23 08:16:53;;;;;;;3.85;3.55;;;;;;;;;;4965966;28;20019;-79
2023/08/23 08:19:19;;;;;;;3.70;3.40;;;;;;;;;;4966620;29;20047;-79
2023/08/23 08:21:45;;;;;;;3.75;3.47;;;;;;;;;;4952165;29;20042;-79
2023/08/23 08:24:12;;;;;;;3.80;3.47;;;;;;;;;;4962991;29;20030;-80
2023/08/23 08:26:38;;;;;;;4.50;3.70;;;;;;;;;;4961542;29;20034;-80
2023/08/23 08:29:04;;;;;;;3.97;3.67;;;;;;;;;;4962190;29;20036;-80
2023/08/23 08:31:30;;;;;;;3.97;3.67;;;;;;;;;;4961402;28;20550;-80
2023/08/23 08:33:58;;;;;;;3.88;3.58;;;;;;;;;;4996735;28;20041;-80
2023/08/23 08:36:24;;;;;;;4.25;3.95;;;;;;;;;;4980666;28;20026;-80
2023/08/23 08:38:50;;;;;;;3.88;3.58;;;;;;;;;;4978595;28;20030;-80
2023/08/23 08:41:16;;;;;;;4.18;3.35;;;;;;;;;;4980329;28;20026;-80
2023/08/23 08:43:43;;;;;;;3.35;3.15;;;;;;;;;;4963280;28;20150;-80
2023/08/23 08:46:10;;;;;;;3.50;3.30;;;;;;;;;;4982449;28;20030;-79
2023/08/23 08:48:36;;;;;;;3.20;3.00;;;;;;;;;;4983760;28;20023;-78
2023/08/23 08:51:03;;;;;;;3.45;3.20;;;;;;;;;;4980128;28;20101;-79
2023/08/23 08:53:32;;;;;;;3.58;3.35;;;;;;;;;;4962598;28;20027;-79
2023/08/23 08:55:59;;;;;;;3.63;3.33;;;;;;;;;;4980443;28;20023;-79
2023/08/23 08:58:25;;;;;;;4.22;3.88;;;;;;;;;;4962188;28;20097;-78
2023/08/23 09:00:53;;;;;;;4.05;3.75;;;;;;;;;;4981910;28;20081;-80
2023/08/23 09:03:19;;;;;;;4.00;3.70;;;;;;;;;;4982199;28;20093;-78
2023/08/23 09:05:50;;;;;;;3.80;3.60;;;;;;;;;;5001024;28;20022;-79
2023/08/23 09:08:16;;;;;;;3.60;3.30;;;;;;;;;;4997565;28;20014;-80
2023/08/23 09:10:42;;;;;;;4.10;3.42;;;;;;;;;;4989974;28;20035;-80
2023/08/23 09:13:08;;;;;;;4.18;3.88;;;;;;;;;;4967419;28;20066;-79
2023/08/23 09:15:34;;;;;;;3.92;3.65;;;;;;;;;;4997019;28;20015;-80
2023/08/23 09:18:00;;;;;;;4.10;3.80;;;;;;;;;;4984135;28;20494;-80
2023/08/23 09:20:26;;;;;;;3.70;3.50;;;;;;;;;;4981246;28;20064;-79
2023/08/23 09:22:53;;;;;;;3.45;3.25;;;;;;;;;;4960549;28;20035;-79
2023/08/23 09:25:20;;;;;;;3.58;3.38;;;;;;;;;;4977972;28;20026;-80
2023/08/23 09:27:46;;;;;;;3.53;3.33;;;;;;;;;;4979906;28;20105;-80
2023/08/23 09:30:12;;;;;;;3.72;3.53;;;;;;;;;;4978516;28;20091;-80
2023/08/23 09:32:41;;;;;;;3.42;3.22;;;;;;;;;;4985546;28;20061;-79
2023/08/23 09:35:14;;;;;;;3.35;3.15;;;;;;;;;;4998870;28;20486;-80
2023/08/23 09:37:41;;;;;;;3.15;2.95;;;;;;;;;;5000510;28;20030;-80
2023/08/23 09:40:15;;;;;;;3.58;3.38;;;;;;;;;;4998156;28;20042;-80
2023/08/23 09:42:42;;;;;;;3.13;3.00;;;;;;;;;;4992827;28;20096;-80
2023/08/23 09:45:09;;;;;;;3.70;3.40;;;;;;;;;;4977909;28;20030;-79
2023/08/23 09:47:36;;;;;;;4.00;3.70;;;;;;;;;;4960860;28;20023;-80
2023/08/23 09:50:03;;;;;;;3.72;3.42;;;;;;;;;;4977472;28;20019;-80
2023/08/23 09:52:31;;;;;;;3.60;3.40;;;;;;;;;;4961823;28;20402;-80
2023/08/23 09:55:02;;;;;;;4.25;3.92;;;;;;;;;;4979161;28;20033;-80
2023/08/23 09:57:28;;;;;;;4.13;3.83;;;;;;;;;;4977987;28;20031;-80
2023/08/23 09:59:55;;;;;;;4.07;3.78;;;;;;;;;;4978375;28;20561;-80
2023/08/23 10:02:21;;;;;;;3.80;3.60;;;;;;;;;;4983274;28;20028;-80
2023/08/23 10:04:47;;;;;;;3.90;3.60;;;;;;;;;;4996062;28;20018;-80
2023/08/23 10:07:15;;;;;;;5.05;4.65;;;;;;;;;;4979661;28;20019;-80
2023/08/23 10:09:41;;;;;;;4.10;3.80;;;;;;;;;;4997068;28;20366;-81
2023/08/23 10:12:09;;;;;;;3.88;3.67;;;;;;;;;;4980944;28;20137;-80
2023/08/23 10:14:37;;;;;;;3.67;3.47;;;;;;;;;;4980401;28;20038;-79
2023/08/23 10:17:04;;;;;;;4.57;4.28;;;;;;;;;;4979401;28;20023;-80
2023/08/23 10:19:31;;;;;;;3.88;3.58;;;;;;;;;;4964481;28;20043;-80
2023/08/23 10:21:58;;;;;;;4.38;3.90;;;;;;;;;;4959900;28;20027;-79
2023/08/23 10:24:37;;;;;;;4.90;4.50;;;;;;;;;;4958471;28;20030;-79
2023/08/23 10:27:07;;;;;;;4.70;4.25;;;;;;;;;;4976246;28;20031;-79
2023/08/23 10:29:37;;;;;;;4.72;4.32;;;;;;;;;;4976084;28;20022;-79
2023/08/23 10:32:10;;;;;;;5.00;4.50;;;;;;;;;;4979380;28;20050;-80
2023/08/23 10:34:37;;;;;;;4.90;4.43;;;;;;;;;;4993676;28;20049;-79
2023/08/23 10:37:19;;;;;;;5.13;4.72;;;;;;;;;;4996640;28;20022;-79
2023/08/23 10:39:49;;;;;;;4.30;4.00;;;;;;;;;;4995505;28;20025;-80
2023/08/23 10:42:16;;;;;;;4.82;4.45;;;;;;;;;;4998724;28;20104;-80
2023/08/23 10:44:46;;;;;;;5.18;4.45;;;;;;;;;;4979119;28;20054;-79
2023/08/23 10:47:13;;;;;;;4.30;4.00;;;;;;;;;;4983576;28;20015;-79
2023/08/23 10:49:40;;;;;;;4.53;4.13;;;;;;;;;;4977266;28;20082;-79
2023/08/23 10:52:06;;;;;;;4.95;4.55;;;;;;;;;;4979592;28;20019;-79
2023/08/23 10:54:34;;;;;;;4.97;4.53;;;;;;;;;;4977893;28;20533;-80
2023/08/23 10:57:00;;;;;;;5.38;4.97;;;;;;;;;;4976566;28;20490;-79
2023/08/23 10:59:26;;;;;;;5.00;4.70;;;;;;;;;;4975838;28;20042;-79
2023/08/23 11:01:52;;;;;;;4.85;4.35;;;;;;;;;;4974362;28;20047;-79
2023/08/23 11:04:19;;;;;;;7.15;4.90;;;;;;;;;;4996637;28;20026;-79
2023/08/23 11:06:46;;;;;;;7.18;5.65;;;;;;;;;;4999750;28;20010;-80
2023/08/23 11:09:12;;;;;;;5.22;4.65;;;;;;;;;;4989576;28;20033;-79
2023/08/23 11:11:38;;;;;;;4.75;4.32;;;;;;;;;;5005634;28;20026;-79
2023/08/23 11:14:04;;;;;;;5.03;4.53;;;;;;;;;;5005786;28;20026;-79
2023/08/23 11:16:30;;;;;;;5.63;5.13;;;;;;;;;;4983881;28;20018;-79
2023/08/23 11:18:56;;;;;;;5.60;5.03;;;;;;;;;;4993762;28;20027;-80
2023/08/23 11:21:23;;;;;;;7.43;4.57;;;;;;;;;;4980931;28;20035;-80
2023/08/23 11:23:49;;;;;;;6.13;4.30;;;;;;;;;;4980434;28;20041;-79
2023/08/23 11:26:15;;;;;;;4.57;4.18;;;;;;;;;;4980796;28;20023;-79
2023/08/23 11:28:41;;;;;;;4.20;3.90;;;;;;;;;;4981596;28;20069;-78
2023/08/23 11:31:08;;;;;;;8.15;5.32;;;;;;;;;;4964539;28;20054;-80
2023/08/23 11:33:35;;;;;;;4.93;4.63;;;;;;;;;;4991950;28;20042;-79
2023/08/23 11:36:04;;;;;;;4.78;4.35;;;;;;;;;;4993349;28;20041;-78
2023/08/23 11:38:31;;;;;;;5.90;5.00;;;;;;;;;;4982468;28;20031;-80
2023/08/23 11:40:57;;;;;;;4.95;4.50;;;;;;;;;;4990334;28;20083;-79
2023/08/23 11:43:27;;;;;;;4.10;3.80;;;;;;;;;;4977642;28;20031;-79
2023/08/23 11:45:53;;;;;;;4.70;4.40;;;;;;;;;;4989959;28;20123;-77
2023/08/23 11:48:20;;;;;;;5.45;4.80;;;;;;;;;;4992165;28;20019;-79
2023/08/23 11:50:47;;;;;;;5.22;4.30;;;;;;;;;;4991338;28;20045;-79
2023/08/23 11:53:13;;;;;;;4.78;4.38;;;;;;;;;;4990555;28;20031;-78
2023/08/23 11:55:42;;;;;;;4.90;4.43;;;;;;;;;;4984752;28;20031;-78
2023/08/23 11:58:11;;;;;;;6.00;4.90;;;;;;;;;;4989277;28;20110;-78
2023/08/23 12:00:38;;;;;;;5.30;4.80;;;;;;;;;;4995005;28;20046;-78
2023/08/23 12:03:04;;;;;;;7.40;4.78;;;;;;;;;;4993520;28;20034;-78
2023/08/23 12:05:31;;;;;;;4.95;4.50;;;;;;;;;;4994283;28;20022;-79
2023/08/23 12:07:57;;;;;;;5.60;4.85;;;;;;;;;;4992287;28;20062;-79
2023/08/23 12:10:23;;;;;;;4.80;4.35;;;;;;;;;;4970247;28;20034;-79
2023/08/23 12:12:50;;;;;;;4.60;4.20;;;;;;;;;;4981166;28;20042;-79
2023/08/23 12:15:16;;;;;;;4.75;4.13;;;;;;;;;;4979166;28;20090;-79
2023/08/23 12:17:43;;;;;;;5.38;4.25;;;;;;;;;;4978569;28;20101;-78
2023/08/23 12:20:11;;;;;;;4.70;4.32;;;;;;;;;;4977709;28;20105;-79
2023/08/23 12:22:37;;;;;;;6.72;4.80;;;;;;;;;;4978467;28;20092;-79
2023/08/23 12:25:04;;;;;;;5.30;3.92;;;;;;;;;;4978004;28;20170;-78
2023/08/23 12:27:30;;;;;;;4.43;4.00;;;;;;;;;;4978275;28;20034;-79
2023/08/23 12:29:56;;;;;;;4.45;4.05;;;;;;;;;;4978217;28;20018;-78
2023/08/23 12:32:22;;;;;;;5.35;4.40;;;;;;;;;;4983673;28;20078;-78
2023/08/23 12:34:48;;;;;;;6.97;4.35;;;;;;;;;;4997023;28;20050;-78
2023/08/23 12:37:15;;;;;;;4.90;4.53;;;;;;;;;;4999220;28;20060;-78
2023/08/23 12:39:41;;;;;;;4.53;4.18;;;;;;;;;;4982489;28;20030;-78
2023/08/23 12:42:07;;;;;;;5.97;4.40;;;;;;;;;;4977640;28;20023;-78
2023/08/23 12:44:33;;;;;;;6.63;4.72;;;;;;;;;;4980212;28;20406;-78
2023/08/23 12:47:00;;;;;;;4.43;4.03;;;;;;;;;;4962309;28;20014;-78
2023/08/23 12:49:29;;;;;;;4.68;4.22;;;;;;;;;;4981472;28;20105;-79
2023/08/23 12:51:55;;;;;;;5.00;4.60;;;;;;;;;;4964796;28;20174;-78
2023/08/23 12:54:22;;;;;;;4.70;4.30;;;;;;;;;;4978478;28;20037;-79
2023/08/23 12:56:49;;;;;;;5.10;4.63;;;;;;;;;;4979634;28;20034;-79
2023/08/23 12:59:15;;;;;;;4.95;4.38;;;;;;;;;;4962079;28;20031;-80
2023/08/23 13:01:41;;;;;;;4.70;3.97;;;;;;;;;;4960750;28;20030;-79
2023/08/23 13:04:07;;;;;;;4.63;4.22;;;;;;;;;;4977407;28;20035;-78
2023/08/23 13:06:33;;;;;;;4.75;4.35;;;;;;;;;;4979633;28;20041;-78
2023/08/23 13:08:59;;;;;;;4.15;3.75;;;;;;;;;;4978783;28;20074;-78
2023/08/23 13:11:25;;;;;;;5.93;4.15;;;;;;;;;;4978840;28;20038;-79
2023/08/23 13:13:52;;;;;;;5.70;4.13;;;;;;;;;;4979093;28;20051;-79
2023/08/23 13:16:18;;;;;;;6.43;4.70;;;;;;;;;;4980650;28;20071;-79
2023/08/23 13:18:45;;;;;;;4.53;4.22;;;;;;;;;;4960481;28;20023;-81
2023/08/23 13:21:11;;;;;;;4.80;4.45;;;;;;;;;;4962846;28;20109;-80
2023/08/23 13:23:38;;;;;;;5.07;4.30;;;;;;;;;;4985428;28;20122;-78
2023/08/23 13:26:04;;;;;;;5.28;4.40;;;;;;;;;;4981825;28;20156;-79
2023/08/23 13:28:30;;;;;;;5.05;4.43;;;;;;;;;;4966082;28;20042;-79
2023/08/23 13:30:59;;;;;;;4.65;4.22;;;;;;;;;;4978119;28;20053;-79
2023/08/23 13:33:25;;;;;;;5.32;4.20;;;;;;;;;;4979937;28;20065;-80
2023/08/23 13:35:51;;;;;;;4.88;4.47;;;;;;;;;;4966088;28;20030;-79
2023/08/23 13:38:18;;;;;;;4.70;4.30;;;;;;;;;;4980197;28;20030;-79
2023/08/23 13:40:44;;;;;;;5.07;4.57;;;;;;;;;;4978819;28;20026;-79
2023/08/23 13:43:10;;;;;;;4.22;3.85;;;;;;;;;;4985569;28;20077;-79
2023/08/23 13:45:36;;;;;;;5.22;4.82;;;;;;;;;;4994709;28;20037;-79
2023/08/23 13:48:02;;;;;;;4.75;3.75;;;;;;;;;;4974123;28;20027;-79
2023/08/23 13:50:28;;;;;;;5.75;4.45;;;;;;;;;;5000159;28;20029;-79
2023/08/23 13:52:54;;;;;;;5.10;4.55;;;;;;;;;;4999067;28;20022;-79
2023/08/23 13:55:26;;;;;;;4.63;4.32;;;;;;;;;;4998514;28;20034;-79
2023/08/23 13:57:52;;;;;;;4.80;4.28;;;;;;;;;;4999761;28;20018;-80
2023/08/23 14:00:19;;;;;;;5.05;4.57;;;;;;;;;;4998380;28;20026;-79
2023/08/23 14:02:45;;;;;;;4.38;3.97;;;;;;;;;;4973419;28;20030;-79
2023/08/23 14:05:11;;;;;;;4.60;4.10;;;;;;;;;;4994235;28;20718;-79
2023/08/23 14:07:37;;;;;;;5.45;4.50;;;;;;;;;;4982045;28;20035;-79
2023/08/23 14:10:04;;;;;;;6.82;4.20;;;;;;;;;;4959426;28;20023;-79
2023/08/23 14:12:30;;;;;;;4.55;4.25;;;;;;;;;;4976253;28;20122;-78
2023/08/23 14:14:56;;;;;;;4.53;4.13;;;;;;;;;;4977019;28;20034;-78
2023/08/23 14:17:22;;;;;;;5.57;4.32;;;;;;;;;;4977040;28;20034;-79
2023/08/23 14:19:49;;;;;;;6.72;4.32;;;;;;;;;;4959516;28;20389;-79
2023/08/23 14:22:15;;;;;;;4.90;4.40;;;;;;;;;;4977021;28;20098;-79
2023/08/23 14:24:41;;;;;;;5.32;4.07;;;;;;;;;;4976582;28;20081;-78
2023/08/23 14:27:08;;;;;;;4.72;4.30;;;;;;;;;;4977848;28;20098;-78
2023/08/23 14:29:34;;;;;;;5.03;4.22;;;;;;;;;;4976456;28;20027;-78
2023/08/23 14:32:00;;;;;;;5.88;5.15;;;;;;;;;;4958230;28;20027;-79
2023/08/23 14:34:26;;;;;;;6.25;4.10;;;;;;;;;;4988268;28;20022;-77
2023/08/23 14:36:52;;;;;;;9.77;4.55;;;;;;;;;;4986531;28;20582;-78
2023/08/23 14:39:18;;;;;;;4.75;4.28;;;;;;;;;;4978757;28;20387;-83